sensor_id;sensor_type;location;lat;lon;timestamp;P1;durP1;ratioP1;P2;durP2;ratioP2
55589;SDS011;41452;42.780;23.116;2022-07-29T00:02:01;12.55;;;9.07;;
55589;SDS011;41452;42.780;23.116;2022-07-29T00:04:26;19.77;;;8.77;;
55589;SDS011;41452;42.780;23.116;2022-07-29T00:06:51;13.05;;;8.30;;
55589;SDS011;41452;42.780;23.116;2022-07-29T00:09:17;10.98;;;7.70;;
55589;SDS011;41452;42.780;23.116;2022-07-29T00:11:42;11.25;;;8.82;;
55589;SDS011;41452;42.780;23.116;2022-07-29T00:14:08;12.93;;;8.50;;
55589;SDS011;41452;42.780;23.116;2022-07-29T00:16:33;15.60;;;8.13;;
55589;SDS011;41452;42.780;23.116;2022-07-29T00:18:59;12.77;;;7.78;;
55589;SDS011;41452;42.780;23.116;2022-07-29T00:21:24;13.80;;;8.60;;
55589;SDS011;41452;42.780;23.116;2022-07-29T00:23:49;14.63;;;8.48;;
55589;SDS011;41452;42.780;23.116;2022-07-29T00:26:15;12.35;;;8.35;;
55589;SDS011;41452;42.780;23.116;2022-07-29T00:28:40;10.15;;;7.63;;
55589;SDS011;41452;42.780;23.116;2022-07-29T00:31:06;11.40;;;8.05;;
55589;SDS011;41452;42.780;23.116;2022-07-29T00:33:31;12.98;;;8.00;;
55589;SDS011;41452;42.780;23.116;2022-07-29T00:35:56;13.10;;;9.18;;
55589;SDS011;41452;42.780;23.116;2022-07-29T00:38:22;10.98;;;7.85;;
55589;SDS011;41452;42.780;23.116;2022-07-29T00:40:47;12.05;;;7.97;;
55589;SDS011;41452;42.780;23.116;2022-07-29T00:43:13;12.55;;;8.48;;
55589;SDS011;41452;42.780;23.116;2022-07-29T00:45:40;10.95;;;7.80;;
55589;SDS011;41452;42.780;23.116;2022-07-29T00:48:06;12.20;;;7.90;;
55589;SDS011;41452;42.780;23.116;2022-07-29T00:50:33;12.63;;;8.68;;
55589;SDS011;41452;42.780;23.116;2022-07-29T00:52:59;11.63;;;7.68;;
55589;SDS011;41452;42.780;23.116;2022-07-29T00:55:26;12.40;;;7.82;;
55589;SDS011;41452;42.780;23.116;2022-07-29T00:57:52;12.57;;;8.20;;
55589;SDS011;41452;42.780;23.116;2022-07-29T01:00:23;12.20;;;7.75;;
55589;SDS011;41452;42.780;23.116;2022-07-29T01:02:50;13.02;;;7.97;;
55589;SDS011;41452;42.780;23.116;2022-07-29T01:05:19;15.18;;;8.68;;
55589;SDS011;41452;42.780;23.116;2022-07-29T01:07:46;15.73;;;8.32;;
55589;SDS011;41452;42.780;23.116;2022-07-29T01:10:16;10.98;;;7.88;;
55589;SDS011;41452;42.780;23.116;2022-07-29T01:12:48;12.82;;;8.88;;
55589;SDS011;41452;42.780;23.116;2022-07-29T01:15:15;12.75;;;8.05;;
55589;SDS011;41452;42.780;23.116;2022-07-29T01:26:04;12.15;;;8.90;;
55589;SDS011;41452;42.780;23.116;2022-07-29T01:31:36;10.50;;;7.95;;
55589;SDS011;41452;42.780;23.116;2022-07-29T01:34:05;11.20;;;8.05;;
55589;SDS011;41452;42.780;23.116;2022-07-29T01:36:46;15.30;;;8.15;;
55589;SDS011;41452;42.780;23.116;2022-07-29T01:39:21;15.85;;;7.55;;
55589;SDS011;41452;42.780;23.116;2022-07-29T01:45:12;15.77;;;8.93;;
55589;SDS011;41452;42.780;23.116;2022-07-29T01:47:44;10.93;;;8.13;;
55589;SDS011;41452;42.780;23.116;2022-07-29T01:50:17;12.57;;;9.25;;
55589;SDS011;41452;42.780;23.116;2022-07-29T01:52:52;10.27;;;7.97;;
55589;SDS011;41452;42.780;23.116;2022-07-29T01:55:22;13.32;;;8.13;;
55589;SDS011;41452;42.780;23.116;2022-07-29T01:57:52;10.75;;;8.55;;
55589;SDS011;41452;42.780;23.116;2022-07-29T02:00:19;16.67;;;8.80;;
55589;SDS011;41452;42.780;23.116;2022-07-29T02:02:45;12.68;;;8.52;;
55589;SDS011;41452;42.780;23.116;2022-07-29T02:05:14;11.55;;;7.60;;
55589;SDS011;41452;42.780;23.116;2022-07-29T02:07:42;11.45;;;8.00;;
55589;SDS011;41452;42.780;23.116;2022-07-29T02:10:08;13.65;;;7.95;;
55589;SDS011;41452;42.780;23.116;2022-07-29T02:12:35;11.02;;;8.10;;
55589;SDS011;41452;42.780;23.116;2022-07-29T02:15:03;12.80;;;8.27;;
55589;SDS011;41452;42.780;23.116;2022-07-29T02:17:35;11.45;;;7.53;;
55589;SDS011;41452;42.780;23.116;2022-07-29T02:20:06;12.70;;;8.73;;
55589;SDS011;41452;42.780;23.116;2022-07-29T02:22:33;12.45;;;8.60;;
55589;SDS011;41452;42.780;23.116;2022-07-29T02:25:00;14.48;;;8.95;;
55589;SDS011;41452;42.780;23.116;2022-07-29T02:27:26;11.60;;;7.93;;
55589;SDS011;41452;42.780;23.116;2022-07-29T02:29:53;11.52;;;8.65;;
55589;SDS011;41452;42.780;23.116;2022-07-29T02:32:21;13.30;;;9.27;;
55589;SDS011;41452;42.780;23.116;2022-07-29T02:34:49;12.23;;;8.75;;
55589;SDS011;41452;42.780;23.116;2022-07-29T02:37:16;11.07;;;8.35;;
55589;SDS011;41452;42.780;23.116;2022-07-29T02:39:43;10.23;;;7.47;;
55589;SDS011;41452;42.780;23.116;2022-07-29T02:42:12;11.27;;;8.38;;
55589;SDS011;41452;42.780;23.116;2022-07-29T02:44:40;15.35;;;8.38;;
55589;SDS011;41452;42.780;23.116;2022-07-29T02:49:43;10.77;;;8.75;;
55589;SDS011;41452;42.780;23.116;2022-07-29T02:54:57;11.52;;;8.38;;
55589;SDS011;41452;42.780;23.116;2022-07-29T02:57:30;11.00;;;8.27;;
55589;SDS011;41452;42.780;23.116;2022-07-29T03:00:01;14.93;;;9.00;;
55589;SDS011;41452;42.780;23.116;2022-07-29T03:02:34;13.55;;;8.63;;
55589;SDS011;41452;42.780;23.116;2022-07-29T03:05:03;15.50;;;8.35;;
55589;SDS011;41452;42.780;23.116;2022-07-29T03:07:31;10.02;;;7.93;;
55589;SDS011;41452;42.780;23.116;2022-07-29T03:09:59;14.30;;;8.85;;
55589;SDS011;41452;42.780;23.116;2022-07-29T03:12:25;11.93;;;8.25;;
55589;SDS011;41452;42.780;23.116;2022-07-29T03:14:52;12.65;;;9.10;;
55589;SDS011;41452;42.780;23.116;2022-07-29T03:17:18;11.52;;;8.65;;
55589;SDS011;41452;42.780;23.116;2022-07-29T03:19:44;11.80;;;8.65;;
55589;SDS011;41452;42.780;23.116;2022-07-29T03:22:10;14.80;;;8.98;;
55589;SDS011;41452;42.780;23.116;2022-07-29T03:24:36;12.60;;;8.80;;
55589;SDS011;41452;42.780;23.116;2022-07-29T03:27:03;12.32;;;9.38;;
55589;SDS011;41452;42.780;23.116;2022-07-29T03:29:30;11.20;;;8.52;;
55589;SDS011;41452;42.780;23.116;2022-07-29T03:31:55;11.98;;;10.40;;
55589;SDS011;41452;42.780;23.116;2022-07-29T03:34:21;12.02;;;8.77;;
55589;SDS011;41452;42.780;23.116;2022-07-29T03:36:46;16.35;;;10.10;;
55589;SDS011;41452;42.780;23.116;2022-07-29T03:39:14;12.70;;;9.55;;
55589;SDS011;41452;42.780;23.116;2022-07-29T03:41:43;12.40;;;9.50;;
55589;SDS011;41452;42.780;23.116;2022-07-29T03:44:12;14.82;;;10.90;;
55589;SDS011;41452;42.780;23.116;2022-07-29T03:46:40;13.40;;;9.27;;
55589;SDS011;41452;42.780;23.116;2022-07-29T03:49:08;15.65;;;10.02;;
55589;SDS011;41452;42.780;23.116;2022-07-29T03:51:35;16.38;;;10.32;;
55589;SDS011;41452;42.780;23.116;2022-07-29T03:54:01;13.43;;;9.85;;
55589;SDS011;41452;42.780;23.116;2022-07-29T03:56:28;12.52;;;9.32;;
55589;SDS011;41452;42.780;23.116;2022-07-29T03:58:57;14.90;;;10.27;;
55589;SDS011;41452;42.780;23.116;2022-07-29T04:01:23;13.77;;;9.10;;
55589;SDS011;41452;42.780;23.116;2022-07-29T04:03:51;20.98;;;9.80;;
55589;SDS011;41452;42.780;23.116;2022-07-29T04:06:16;14.00;;;9.35;;
55589;SDS011;41452;42.780;23.116;2022-07-29T04:08:41;14.70;;;9.55;;
55589;SDS011;41452;42.780;23.116;2022-07-29T04:11:07;13.75;;;9.60;;
55589;SDS011;41452;42.780;23.116;2022-07-29T04:13:32;14.73;;;10.05;;
55589;SDS011;41452;42.780;23.116;2022-07-29T04:15:59;13.43;;;9.85;;
55589;SDS011;41452;42.780;23.116;2022-07-29T04:18:24;14.52;;;9.57;;
55589;SDS011;41452;42.780;23.116;2022-07-29T04:20:50;15.07;;;10.82;;
55589;SDS011;41452;42.780;23.116;2022-07-29T04:23:15;18.23;;;11.52;;
55589;SDS011;41452;42.780;23.116;2022-07-29T04:25:41;15.15;;;10.25;;
55589;SDS011;41452;42.780;23.116;2022-07-29T04:28:08;15.60;;;10.57;;
55589;SDS011;41452;42.780;23.116;2022-07-29T04:30:34;16.00;;;10.60;;
55589;SDS011;41452;42.780;23.116;2022-07-29T04:33:01;15.10;;;10.70;;
55589;SDS011;41452;42.780;23.116;2022-07-29T04:35:31;15.00;;;11.15;;
55589;SDS011;41452;42.780;23.116;2022-07-29T04:37:59;15.77;;;10.27;;
55589;SDS011;41452;42.780;23.116;2022-07-29T04:40:24;13.32;;;10.35;;
55589;SDS011;41452;42.780;23.116;2022-07-29T04:42:50;19.13;;;12.50;;
55589;SDS011;41452;42.780;23.116;2022-07-29T04:45:15;17.02;;;12.63;;
55589;SDS011;41452;42.780;23.116;2022-07-29T04:47:41;15.40;;;11.77;;
55589;SDS011;41452;42.780;23.116;2022-07-29T04:50:06;19.55;;;11.43;;
55589;SDS011;41452;42.780;23.116;2022-07-29T04:52:33;17.80;;;12.52;;
55589;SDS011;41452;42.780;23.116;2022-07-29T04:55:00;17.40;;;13.05;;
55589;SDS011;41452;42.780;23.116;2022-07-29T04:57:25;21.42;;;14.93;;
55589;SDS011;41452;42.780;23.116;2022-07-29T04:59:50;17.20;;;13.05;;
55589;SDS011;41452;42.780;23.116;2022-07-29T05:02:16;18.73;;;14.38;;
55589;SDS011;41452;42.780;23.116;2022-07-29T05:04:41;18.05;;;13.48;;
55589;SDS011;41452;42.780;23.116;2022-07-29T05:07:07;18.15;;;13.25;;
55589;SDS011;41452;42.780;23.116;2022-07-29T05:09:32;22.45;;;14.13;;
55589;SDS011;41452;42.780;23.116;2022-07-29T05:11:57;21.98;;;14.07;;
55589;SDS011;41452;42.780;23.116;2022-07-29T05:14:23;17.92;;;13.13;;
55589;SDS011;41452;42.780;23.116;2022-07-29T05:16:48;20.33;;;13.45;;
55589;SDS011;41452;42.780;23.116;2022-07-29T05:19:16;22.67;;;13.82;;
55589;SDS011;41452;42.780;23.116;2022-07-29T05:21:42;21.60;;;14.32;;
55589;SDS011;41452;42.780;23.116;2022-07-29T05:24:07;17.60;;;13.27;;
55589;SDS011;41452;42.780;23.116;2022-07-29T05:26:33;19.52;;;13.75;;
55589;SDS011;41452;42.780;23.116;2022-07-29T05:28:58;20.73;;;14.18;;
55589;SDS011;41452;42.780;23.116;2022-07-29T05:31:23;18.25;;;13.90;;
55589;SDS011;41452;42.780;23.116;2022-07-29T05:33:49;19.80;;;13.75;;
55589;SDS011;41452;42.780;23.116;2022-07-29T05:36:14;24.38;;;14.35;;
55589;SDS011;41452;42.780;23.116;2022-07-29T05:38:39;20.17;;;14.52;;
55589;SDS011;41452;42.780;23.116;2022-07-29T05:41:05;18.95;;;14.13;;
55589;SDS011;41452;42.780;23.116;2022-07-29T05:43:30;19.17;;;13.70;;
55589;SDS011;41452;42.780;23.116;2022-07-29T05:45:56;16.98;;;12.85;;
55589;SDS011;41452;42.780;23.116;2022-07-29T05:48:22;19.58;;;14.30;;
55589;SDS011;41452;42.780;23.116;2022-07-29T05:50:48;22.55;;;15.05;;
55589;SDS011;41452;42.780;23.116;2022-07-29T05:53:13;20.30;;;14.07;;
55589;SDS011;41452;42.780;23.116;2022-07-29T05:55:39;18.55;;;13.57;;
55589;SDS011;41452;42.780;23.116;2022-07-29T05:58:04;19.83;;;13.77;;
55589;SDS011;41452;42.780;23.116;2022-07-29T06:00:29;20.90;;;13.52;;
55589;SDS011;41452;42.780;23.116;2022-07-29T06:02:55;18.60;;;13.68;;
55589;SDS011;41452;42.780;23.116;2022-07-29T06:05:21;17.92;;;13.07;;
55589;SDS011;41452;42.780;23.116;2022-07-29T06:07:47;20.63;;;13.18;;
55589;SDS011;41452;42.780;23.116;2022-07-29T06:10:12;21.25;;;12.40;;
55589;SDS011;41452;42.780;23.116;2022-07-29T06:12:38;21.00;;;11.93;;
55589;SDS011;41452;42.780;23.116;2022-07-29T06:15:03;16.75;;;11.07;;
55589;SDS011;41452;42.780;23.116;2022-07-29T06:17:29;17.63;;;10.13;;
55589;SDS011;41452;42.780;23.116;2022-07-29T06:19:54;13.90;;;9.45;;
55589;SDS011;41452;42.780;23.116;2022-07-29T06:22:20;12.30;;;9.38;;
55589;SDS011;41452;42.780;23.116;2022-07-29T06:24:45;20.48;;;10.45;;
55589;SDS011;41452;42.780;23.116;2022-07-29T06:27:11;15.02;;;9.82;;
55589;SDS011;41452;42.780;23.116;2022-07-29T06:29:36;15.32;;;10.07;;
55589;SDS011;41452;42.780;23.116;2022-07-29T06:32:02;15.50;;;11.05;;
55589;SDS011;41452;42.780;23.116;2022-07-29T06:34:28;13.45;;;9.90;;
55589;SDS011;41452;42.780;23.116;2022-07-29T06:36:54;14.73;;;10.15;;
55589;SDS011;41452;42.780;23.116;2022-07-29T06:39:19;22.77;;;10.82;;
55589;SDS011;41452;42.780;23.116;2022-07-29T06:41:48;15.88;;;9.48;;
55589;SDS011;41452;42.780;23.116;2022-07-29T06:44:14;13.52;;;10.38;;
55589;SDS011;41452;42.780;23.116;2022-07-29T06:46:40;17.20;;;10.27;;
55589;SDS011;41452;42.780;23.116;2022-07-29T06:49:06;14.57;;;10.18;;
55589;SDS011;41452;42.780;23.116;2022-07-29T06:51:32;13.02;;;10.15;;
55589;SDS011;41452;42.780;23.116;2022-07-29T06:53:57;16.10;;;10.93;;
55589;SDS011;41452;42.780;23.116;2022-07-29T06:56:23;15.85;;;11.02;;
55589;SDS011;41452;42.780;23.116;2022-07-29T06:58:49;18.55;;;10.32;;
55589;SDS011;41452;42.780;23.116;2022-07-29T07:01:14;16.50;;;10.55;;
55589;SDS011;41452;42.780;23.116;2022-07-29T07:03:40;14.60;;;10.52;;
55589;SDS011;41452;42.780;23.116;2022-07-29T07:06:06;15.77;;;10.43;;
55589;SDS011;41452;42.780;23.116;2022-07-29T07:08:32;13.82;;;10.73;;
55589;SDS011;41452;42.780;23.116;2022-07-29T07:10:57;17.77;;;10.75;;
55589;SDS011;41452;42.780;23.116;2022-07-29T07:13:23;17.40;;;10.77;;
55589;SDS011;41452;42.780;23.116;2022-07-29T07:15:49;14.75;;;9.40;;
55589;SDS011;41452;42.780;23.116;2022-07-29T07:18:16;16.45;;;10.77;;
55589;SDS011;41452;42.780;23.116;2022-07-29T07:20:42;15.25;;;10.10;;
55589;SDS011;41452;42.780;23.116;2022-07-29T07:23:08;12.45;;;9.45;;
55589;SDS011;41452;42.780;23.116;2022-07-29T07:25:33;16.08;;;10.65;;
55589;SDS011;41452;42.780;23.116;2022-07-29T07:27:59;13.48;;;9.93;;
55589;SDS011;41452;42.780;23.116;2022-07-29T07:30:24;17.30;;;9.65;;
55589;SDS011;41452;42.780;23.116;2022-07-29T07:32:49;14.70;;;10.32;;
55589;SDS011;41452;42.780;23.116;2022-07-29T07:35:15;14.52;;;9.60;;
55589;SDS011;41452;42.780;23.116;2022-07-29T07:37:41;13.82;;;8.15;;
55589;SDS011;41452;42.780;23.116;2022-07-29T07:40:07;14.20;;;9.57;;
55589;SDS011;41452;42.780;23.116;2022-07-29T07:42:34;18.00;;;9.40;;
55589;SDS011;41452;42.780;23.116;2022-07-29T07:45:00;13.48;;;10.15;;
55589;SDS011;41452;42.780;23.116;2022-07-29T07:47:26;14.80;;;8.88;;
55589;SDS011;41452;42.780;23.116;2022-07-29T07:49:51;15.73;;;8.85;;
55589;SDS011;41452;42.780;23.116;2022-07-29T07:52:18;17.52;;;9.18;;
55589;SDS011;41452;42.780;23.116;2022-07-29T07:54:45;12.65;;;9.27;;
55589;SDS011;41452;42.780;23.116;2022-07-29T07:57:11;12.65;;;9.57;;
55589;SDS011;41452;42.780;23.116;2022-07-29T07:59:38;17.00;;;9.60;;
55589;SDS011;41452;42.780;23.116;2022-07-29T08:02:04;12.27;;;8.82;;
55589;SDS011;41452;42.780;23.116;2022-07-29T08:04:30;13.27;;;8.90;;
55589;SDS011;41452;42.780;23.116;2022-07-29T08:06:56;11.38;;;8.35;;
55589;SDS011;41452;42.780;23.116;2022-07-29T08:09:23;16.00;;;8.60;;
55589;SDS011;41452;42.780;23.116;2022-07-29T08:11:49;12.40;;;8.93;;
55589;SDS011;41452;42.780;23.116;2022-07-29T08:14:15;11.35;;;8.20;;
55589;SDS011;41452;42.780;23.116;2022-07-29T08:16:41;13.57;;;8.25;;
55589;SDS011;41452;42.780;23.116;2022-07-29T08:19:07;13.13;;;8.30;;
55589;SDS011;41452;42.780;23.116;2022-07-29T08:21:32;10.38;;;7.28;;
55589;SDS011;41452;42.780;23.116;2022-07-29T08:23:58;10.48;;;6.75;;
55589;SDS011;41452;42.780;23.116;2022-07-29T08:26:42;10.45;;;7.05;;
55589;SDS011;41452;42.780;23.116;2022-07-29T08:29:08;12.40;;;6.35;;
55589;SDS011;41452;42.780;23.116;2022-07-29T08:31:34;9.10;;;6.55;;
55589;SDS011;41452;42.780;23.116;2022-07-29T08:34:00;9.23;;;7.28;;
55589;SDS011;41452;42.780;23.116;2022-07-29T08:36:26;9.07;;;5.80;;
55589;SDS011;41452;42.780;23.116;2022-07-29T08:38:51;9.25;;;6.20;;
55589;SDS011;41452;42.780;23.116;2022-07-29T08:41:20;10.70;;;6.75;;
55589;SDS011;41452;42.780;23.116;2022-07-29T08:43:47;8.75;;;6.63;;
55589;SDS011;41452;42.780;23.116;2022-07-29T08:46:13;7.80;;;6.05;;
55589;SDS011;41452;42.780;23.116;2022-07-29T08:48:40;7.20;;;5.55;;
55589;SDS011;41452;42.780;23.116;2022-07-29T08:51:06;7.10;;;5.35;;
55589;SDS011;41452;42.780;23.116;2022-07-29T08:53:33;8.40;;;5.95;;
55589;SDS011;41452;42.780;23.116;2022-07-29T08:55:59;6.60;;;5.25;;
55589;SDS011;41452;42.780;23.116;2022-07-29T08:58:26;9.38;;;5.32;;
55589;SDS011;41452;42.780;23.116;2022-07-29T09:00:56;7.13;;;5.22;;
55589;SDS011;41452;42.780;23.116;2022-07-29T09:03:22;9.18;;;5.28;;
55589;SDS011;41452;42.780;23.116;2022-07-29T09:05:49;6.45;;;5.18;;
55589;SDS011;41452;42.780;23.116;2022-07-29T09:08:16;6.40;;;4.20;;
55589;SDS011;41452;42.780;23.116;2022-07-29T09:10:42;9.60;;;4.75;;
55589;SDS011;41452;42.780;23.116;2022-07-29T09:13:08;15.00;;;4.60;;
55589;SDS011;41452;42.780;23.116;2022-07-29T09:15:34;9.35;;;4.78;;
55589;SDS011;41452;42.780;23.116;2022-07-29T09:17:59;5.95;;;5.03;;
55589;SDS011;41452;42.780;23.116;2022-07-29T09:20:25;7.10;;;4.43;;
55589;SDS011;41452;42.780;23.116;2022-07-29T09:23:12;7.88;;;4.00;;
55589;SDS011;41452;42.780;23.116;2022-07-29T09:25:38;6.93;;;4.53;;
55589;SDS011;41452;42.780;23.116;2022-07-29T09:28:09;6.38;;;4.03;;
55589;SDS011;41452;42.780;23.116;2022-07-29T09:30:57;6.00;;;4.32;;
55589;SDS011;41452;42.780;23.116;2022-07-29T09:33:32;6.78;;;4.60;;
55589;SDS011;41452;42.780;23.116;2022-07-29T09:36:04;4.63;;;3.95;;
55589;SDS011;41452;42.780;23.116;2022-07-29T09:38:31;6.07;;;4.53;;
55589;SDS011;41452;42.780;23.116;2022-07-29T09:40:58;5.55;;;4.50;;
55589;SDS011;41452;42.780;23.116;2022-07-29T09:43:24;5.22;;;3.58;;
55589;SDS011;41452;42.780;23.116;2022-07-29T09:45:50;8.00;;;3.83;;
55589;SDS011;41452;42.780;23.116;2022-07-29T09:48:24;6.75;;;4.07;;
55589;SDS011;41452;42.780;23.116;2022-07-29T09:50:50;4.88;;;3.67;;
55589;SDS011;41452;42.780;23.116;2022-07-29T09:55:58;8.45;;;4.30;;
55589;SDS011;41452;42.780;23.116;2022-07-29T09:58:24;4.38;;;3.70;;
55589;SDS011;41452;42.780;23.116;2022-07-29T10:00:49;6.07;;;3.63;;
55589;SDS011;41452;42.780;23.116;2022-07-29T10:03:16;5.07;;;3.95;;
55589;SDS011;41452;42.780;23.116;2022-07-29T10:05:42;4.80;;;3.70;;
55589;SDS011;41452;42.780;23.116;2022-07-29T10:08:09;5.55;;;4.18;;
55589;SDS011;41452;42.780;23.116;2022-07-29T10:10:38;5.88;;;4.07;;
55589;SDS011;41452;42.780;23.116;2022-07-29T10:13:06;4.90;;;3.33;;
55589;SDS011;41452;42.780;23.116;2022-07-29T10:15:34;5.22;;;3.50;;
55589;SDS011;41452;42.780;23.116;2022-07-29T10:18:05;5.32;;;4.22;;
55589;SDS011;41452;42.780;23.116;2022-07-29T10:20:32;6.35;;;3.65;;
55589;SDS011;41452;42.780;23.116;2022-07-29T10:22:57;6.43;;;4.38;;
55589;SDS011;41452;42.780;23.116;2022-07-29T10:25:23;3.95;;;3.33;;
55589;SDS011;41452;42.780;23.116;2022-07-29T10:27:50;6.00;;;4.18;;
55589;SDS011;41452;42.780;23.116;2022-07-29T10:30:17;7.85;;;3.95;;
55589;SDS011;41452;42.780;23.116;2022-07-29T10:35:38;4.32;;;3.63;;
55589;SDS011;41452;42.780;23.116;2022-07-29T10:41:03;8.38;;;3.50;;
55589;SDS011;41452;42.780;23.116;2022-07-29T10:46:18;8.60;;;3.10;;
55589;SDS011;41452;42.780;23.116;2022-07-29T10:59:41;6.75;;;4.13;;
55589;SDS011;41452;42.780;23.116;2022-07-29T11:07:24;6.03;;;3.83;;
55589;SDS011;41452;42.780;23.116;2022-07-29T11:15:06;7.63;;;3.70;;
55589;SDS011;41452;42.780;23.116;2022-07-29T11:28:39;4.93;;;3.92;;
55589;SDS011;41452;42.780;23.116;2022-07-29T11:31:15;5.80;;;4.32;;
55589;SDS011;41452;42.780;23.116;2022-07-29T11:33:44;6.90;;;3.95;;
55589;SDS011;41452;42.780;23.116;2022-07-29T11:38:36;6.43;;;4.18;;
55589;SDS011;41452;42.780;23.116;2022-07-29T11:43:46;4.60;;;4.00;;
55589;SDS011;41452;42.780;23.116;2022-07-29T11:46:13;6.65;;;4.20;;
55589;SDS011;41452;42.780;23.116;2022-07-29T11:48:42;4.50;;;3.60;;
55589;SDS011;41452;42.780;23.116;2022-07-29T11:51:10;8.23;;;4.00;;
55589;SDS011;41452;42.780;23.116;2022-07-29T11:53:37;12.95;;;4.10;;
55589;SDS011;41452;42.780;23.116;2022-07-29T11:56:04;6.22;;;3.90;;
55589;SDS011;41452;42.780;23.116;2022-07-29T11:58:33;6.38;;;4.45;;
55589;SDS011;41452;42.780;23.116;2022-07-29T12:01:00;7.93;;;4.22;;
55589;SDS011;41452;42.780;23.116;2022-07-29T12:03:26;6.00;;;3.90;;
55589;SDS011;41452;42.780;23.116;2022-07-29T12:05:53;8.10;;;4.55;;
55589;SDS011;41452;42.780;23.116;2022-07-29T12:08:20;8.30;;;4.60;;
55589;SDS011;41452;42.780;23.116;2022-07-29T12:10:48;5.70;;;4.00;;
55589;SDS011;41452;42.780;23.116;2022-07-29T12:13:15;7.05;;;4.07;;
55589;SDS011;41452;42.780;23.116;2022-07-29T12:15:42;6.82;;;3.97;;
55589;SDS011;41452;42.780;23.116;2022-07-29T12:18:17;6.07;;;4.15;;
55589;SDS011;41452;42.780;23.116;2022-07-29T12:20:43;6.40;;;3.60;;
55589;SDS011;41452;42.780;23.116;2022-07-29T12:23:10;5.30;;;4.13;;
55589;SDS011;41452;42.780;23.116;2022-07-29T12:25:39;6.28;;;3.70;;
55589;SDS011;41452;42.780;23.116;2022-07-29T12:28:08;6.53;;;3.90;;
55589;SDS011;41452;42.780;23.116;2022-07-29T12:30:42;6.78;;;4.10;;
55589;SDS011;41452;42.780;23.116;2022-07-29T12:33:24;5.78;;;3.88;;
55589;SDS011;41452;42.780;23.116;2022-07-29T12:36:10;6.22;;;4.25;;
55589;SDS011;41452;42.780;23.116;2022-07-29T12:38:39;5.50;;;3.97;;
55589;SDS011;41452;42.780;23.116;2022-07-29T12:41:05;8.52;;;4.10;;
55589;SDS011;41452;42.780;23.116;2022-07-29T12:43:31;6.55;;;3.83;;
55589;SDS011;41452;42.780;23.116;2022-07-29T12:45:57;5.45;;;3.60;;
55589;SDS011;41452;42.780;23.116;2022-07-29T12:48:37;4.78;;;3.97;;
55589;SDS011;41452;42.780;23.116;2022-07-29T12:51:05;7.15;;;4.15;;
55589;SDS011;41452;42.780;23.116;2022-07-29T12:53:32;12.38;;;3.97;;
55589;SDS011;41452;42.780;23.116;2022-07-29T12:55:58;6.30;;;4.32;;
55589;SDS011;41452;42.780;23.116;2022-07-29T12:58:27;5.72;;;4.10;;
55589;SDS011;41452;42.780;23.116;2022-07-29T13:01:10;6.18;;;3.72;;
55589;SDS011;41452;42.780;23.116;2022-07-29T13:14:08;9.13;;;4.38;;
55589;SDS011;41452;42.780;23.116;2022-07-29T13:16:35;6.57;;;4.07;;
55589;SDS011;41452;42.780;23.116;2022-07-29T13:19:11;6.82;;;4.03;;
55589;SDS011;41452;42.780;23.116;2022-07-29T13:21:37;6.38;;;4.57;;
55589;SDS011;41452;42.780;23.116;2022-07-29T13:24:04;6.18;;;4.25;;
55589;SDS011;41452;42.780;23.116;2022-07-29T13:26:31;5.55;;;4.38;;
55589;SDS011;41452;42.780;23.116;2022-07-29T13:28:56;5.72;;;4.53;;
55589;SDS011;41452;42.780;23.116;2022-07-29T13:31:22;5.78;;;4.60;;
55589;SDS011;41452;42.780;23.116;2022-07-29T13:33:47;5.53;;;4.68;;
55589;SDS011;41452;42.780;23.116;2022-07-29T13:36:13;5.63;;;4.25;;
55589;SDS011;41452;42.780;23.116;2022-07-29T13:38:38;6.82;;;4.25;;
55589;SDS011;41452;42.780;23.116;2022-07-29T13:41:04;6.45;;;4.28;;
55589;SDS011;41452;42.780;23.116;2022-07-29T13:43:29;7.72;;;4.43;;
55589;SDS011;41452;42.780;23.116;2022-07-29T13:45:58;5.53;;;4.43;;
55589;SDS011;41452;42.780;23.116;2022-07-29T13:48:23;5.82;;;4.47;;
55589;SDS011;41452;42.780;23.116;2022-07-29T13:50:49;5.45;;;4.30;;
55589;SDS011;41452;42.780;23.116;2022-07-29T13:53:14;9.02;;;4.90;;
55589;SDS011;41452;42.780;23.116;2022-07-29T13:55:40;7.13;;;4.97;;
55589;SDS011;41452;42.780;23.116;2022-07-29T13:58:05;6.50;;;4.60;;
55589;SDS011;41452;42.780;23.116;2022-07-29T14:00:30;9.32;;;4.50;;
55589;SDS011;41452;42.780;23.116;2022-07-29T14:02:56;5.60;;;4.22;;
55589;SDS011;41452;42.780;23.116;2022-07-29T14:05:21;10.85;;;4.82;;
55589;SDS011;41452;42.780;23.116;2022-07-29T14:07:47;9.13;;;5.18;;
55589;SDS011;41452;42.780;23.116;2022-07-29T14:10:12;6.68;;;5.25;;
55589;SDS011;41452;42.780;23.116;2022-07-29T14:12:38;9.68;;;5.10;;
55589;SDS011;41452;42.780;23.116;2022-07-29T14:15:04;6.15;;;4.65;;
55589;SDS011;41452;42.780;23.116;2022-07-29T14:17:30;10.75;;;4.43;;
55589;SDS011;41452;42.780;23.116;2022-07-29T14:19:55;8.13;;;5.00;;
55589;SDS011;41452;42.780;23.116;2022-07-29T14:22:21;14.13;;;5.55;;
55589;SDS011;41452;42.780;23.116;2022-07-29T14:24:46;6.85;;;5.18;;
55589;SDS011;41452;42.780;23.116;2022-07-29T14:27:12;7.30;;;5.10;;
55589;SDS011;41452;42.780;23.116;2022-07-29T14:29:37;5.85;;;5.25;;
55589;SDS011;41452;42.780;23.116;2022-07-29T14:32:03;6.80;;;4.80;;
55589;SDS011;41452;42.780;23.116;2022-07-29T14:34:32;7.30;;;4.35;;
55589;SDS011;41452;42.780;23.116;2022-07-29T14:36:57;7.18;;;5.22;;
55589;SDS011;41452;42.780;23.116;2022-07-29T14:39:22;6.72;;;4.53;;
55589;SDS011;41452;42.780;23.116;2022-07-29T14:41:48;11.32;;;5.57;;
55589;SDS011;41452;42.780;23.116;2022-07-29T14:44:14;8.82;;;5.80;;
55589;SDS011;41452;42.780;23.116;2022-07-29T14:46:40;8.05;;;5.72;;
55589;SDS011;41452;42.780;23.116;2022-07-29T14:49:05;6.30;;;5.70;;
55589;SDS011;41452;42.780;23.116;2022-07-29T14:51:31;8.10;;;6.03;;
55589;SDS011;41452;42.780;23.116;2022-07-29T14:53:57;12.95;;;6.93;;
55589;SDS011;41452;42.780;23.116;2022-07-29T14:56:22;7.55;;;5.18;;
55589;SDS011;41452;42.780;23.116;2022-07-29T14:58:48;5.85;;;5.10;;
55589;SDS011;41452;42.780;23.116;2022-07-29T15:01:13;5.07;;;4.55;;
55589;SDS011;41452;42.780;23.116;2022-07-29T15:03:39;6.90;;;4.53;;
55589;SDS011;41452;42.780;23.116;2022-07-29T15:06:04;6.00;;;4.85;;
55589;SDS011;41452;42.780;23.116;2022-07-29T15:08:30;7.13;;;4.78;;
55589;SDS011;41452;42.780;23.116;2022-07-29T15:10:56;6.05;;;4.43;;
55589;SDS011;41452;42.780;23.116;2022-07-29T15:13:24;6.65;;;4.57;;
55589;SDS011;41452;42.780;23.116;2022-07-29T15:15:50;7.28;;;4.63;;
55589;SDS011;41452;42.780;23.116;2022-07-29T15:18:15;7.28;;;4.93;;
55589;SDS011;41452;42.780;23.116;2022-07-29T15:20:41;12.75;;;4.45;;
55589;SDS011;41452;42.780;23.116;2022-07-29T15:23:06;5.80;;;4.55;;
55589;SDS011;41452;42.780;23.116;2022-07-29T15:25:34;7.70;;;5.00;;
55589;SDS011;41452;42.780;23.116;2022-07-29T15:28:01;10.07;;;4.38;;
55589;SDS011;41452;42.780;23.116;2022-07-29T15:30:29;6.63;;;4.80;;
55589;SDS011;41452;42.780;23.116;2022-07-29T15:32:55;6.95;;;4.75;;
55589;SDS011;41452;42.780;23.116;2022-07-29T15:35:20;8.05;;;4.28;;
55589;SDS011;41452;42.780;23.116;2022-07-29T15:37:46;10.05;;;4.53;;
55589;SDS011;41452;42.780;23.116;2022-07-29T15:40:11;6.28;;;4.50;;
55589;SDS011;41452;42.780;23.116;2022-07-29T15:42:37;14.45;;;5.28;;